createdAt,value
2018-12-14T00:00:15.724Z,98053.05
2018-12-14T00:02:51.061Z,98055.08
2018-12-14T00:05:24.157Z,98063.69
2018-12-14T00:08:01.267Z,98059.41
2018-12-14T00:10:38.186Z,98059.05
2018-12-14T00:13:15.432Z,98064.34
2018-12-14T00:18:30.532Z,98061.44
2018-12-14T00:21:08.472Z,98059.11
2018-12-14T00:23:45.661Z,98060.70
2018-12-14T00:26:20.157Z,98065.41
2018-12-14T00:28:54.433Z,98059.05
2018-12-14T00:31:30.308Z,98060.75
2018-12-14T00:34:06.491Z,98062.45
2018-12-14T00:36:37.841Z,98068.62
2018-12-14T00:39:09.493Z,98066.94
2018-12-14T00:41:42.686Z,98064.28
2018-12-14T00:44:17.555Z,98071.58
2018-12-14T00:46:50.569Z,98066.48
2018-12-14T00:49:21.851Z,98071.58
2018-12-14T00:51:53.638Z,98077.17
2018-12-14T00:54:27.919Z,98083.18
2018-12-14T00:57:02.042Z,98083.18
2018-12-14T00:59:32.940Z,98085.73
2018-12-14T01:02:06.824Z,98076.35
2018-12-14T01:04:37.796Z,98080.11
2018-12-14T01:07:12.296Z,98095.47
2018-12-14T01:09:49.846Z,98087.73
2018-12-14T01:12:20.914Z,98094.13
2018-12-14T01:14:52.156Z,98093.05
2018-12-14T01:17:22.969Z,98090.91
2018-12-14T01:19:53.888Z,98093.48
2018-12-14T01:22:26.414Z,98097.13
2018-12-14T01:24:58.966Z,98098.02
2018-12-14T01:27:34.820Z,98092.12
2018-12-14T01:30:09.225Z,98093.70
2018-12-14T01:32:45.803Z,98097.30
2018-12-14T01:35:31.461Z,98098.09
2018-12-14T01:38:07.836Z,98097.80
2018-12-14T01:40:43.241Z,98097.80
2018-12-14T01:43:17.898Z,98101.95
2018-12-14T01:45:52.202Z,98108.67
2018-12-14T01:48:23.228Z,98106.61
2018-12-14T01:50:56.193Z,98109.11
2018-12-14T01:53:27.134Z,98101.81
2018-12-14T01:55:58.069Z,98103.16
2018-12-14T01:58:28.941Z,98106.22
2018-12-14T02:01:00.462Z,98104.45
2018-12-14T02:03:36.621Z,98108.23
2018-12-14T02:06:08.837Z,98104.37
2018-12-14T02:08:42.649Z,98099.94
2018-12-14T02:11:17.507Z,98100.84
2018-12-14T02:13:48.539Z,98090.53
2018-12-14T02:16:19.679Z,98085.98
2018-12-14T02:18:51.421Z,98085.12
2018-12-14T02:21:32.749Z,98083.55
2018-12-14T02:24:03.682Z,98087.51
2018-12-14T02:26:34.597Z,98088.52
2018-12-14T02:29:05.944Z,98089.86
2018-12-14T02:31:37.926Z,98094.64
2018-12-14T02:34:11.881Z,98093.89
2018-12-14T02:36:44.517Z,98104.53
2018-12-14T02:39:17.561Z,98097.89
2018-12-14T02:41:49.093Z,98098.30
2018-12-14T02:44:20.284Z,98100.86
2018-12-14T02:46:52.327Z,98097.45
2018-12-14T02:49:23.199Z,98097.89
2018-12-14T02:51:57.254Z,98098.38
2018-12-14T02:54:28.316Z,98097.51
2018-12-14T02:56:59.939Z,98094.59
2018-12-14T02:59:31.057Z,98096.67
2018-12-14T03:02:03.116Z,98098.09
2018-12-14T03:04:35.623Z,98096.45
2018-12-14T03:07:08.792Z,98095.64
2018-12-14T03:09:43.549Z,98093.38
2018-12-14T03:12:16.401Z,98094.23
2018-12-14T03:14:50.767Z,98095.59
2018-12-14T03:17:23.108Z,98095.50
2018-12-14T03:19:54.742Z,98094.64
2018-12-14T03:22:30.940Z,98101.03
2018-12-14T03:25:06.319Z,98104.41
2018-12-14T03:27:40.897Z,98101.81
2018-12-14T03:30:15.010Z,98094.52
2018-12-14T03:32:46.229Z,98099.89
2018-12-14T03:35:17.091Z,98098.22
2018-12-14T03:37:49.477Z,98094.72
2018-12-14T03:40:20.455Z,98096.03
2018-12-14T03:42:51.774Z,98098.66
2018-12-14T03:45:26.104Z,98096.86
2018-12-14T03:47:57.083Z,98096.47
2018-12-14T03:50:27.993Z,98102.55
2018-12-14T03:52:59.126Z,98098.15
2018-12-14T03:55:30.092Z,98106.31
2018-12-14T03:58:01.223Z,98107.09
2018-12-14T04:00:32.391Z,98111.77
2018-12-14T04:03:03.861Z,98118.78
2018-12-14T04:05:34.988Z,98113.67
2018-12-14T04:08:05.838Z,98118.00
2018-12-14T04:10:36.761Z,98120.33
2018-12-14T04:13:07.597Z,98123.83
2018-12-14T04:15:39.977Z,98116.83
2018-12-14T04:18:10.844Z,98122.47
2018-12-14T04:21:03.054Z,98124.51
2018-12-14T04:23:35.105Z,98120.58
2018-12-14T04:26:08.425Z,98120.55
2018-12-14T04:28:42.817Z,98120.98
2018-12-14T04:31:17.264Z,98119.77
2018-12-14T04:33:53.871Z,98123.56
2018-12-14T04:36:24.925Z,98128.79
2018-12-14T04:39:01.439Z,98121.48
2018-12-14T04:41:34.592Z,98115.93
2018-12-14T04:44:11.323Z,98116.34
2018-12-14T04:46:42.632Z,98113.27
2018-12-14T04:49:13.626Z,98115.62
2018-12-14T04:51:44.620Z,98119.06
2018-12-14T04:54:15.553Z,98123.22
2018-12-14T04:56:48.027Z,98117.14
2018-12-14T04:59:18.998Z,98119.27
2018-12-14T05:01:49.930Z,98129.59
2018-12-14T05:04:21.919Z,98121.02
2018-12-14T05:06:53.421Z,98119.36
2018-12-14T05:09:24.552Z,98122.34
2018-12-14T05:12:00.746Z,98130.59
2018-12-14T05:14:32.020Z,98134.74
2018-12-14T05:17:07.272Z,98132.78
2018-12-14T05:19:40.009Z,98133.22
2018-12-14T05:22:12.359Z,98142.61
2018-12-14T05:24:44.672Z,98132.14
2018-12-14T05:27:18.162Z,98133.86
2018-12-14T05:29:53.084Z,98134.30
2018-12-14T05:32:27.328Z,98128.20
2018-12-14T05:35:03.612Z,98129.88
2018-12-14T05:37:38.322Z,98129.56
2018-12-14T05:40:14.573Z,98133.49
2018-12-14T05:42:47.156Z,98133.80
2018-12-14T05:45:23.452Z,98132.50
2018-12-14T05:48:05.847Z,98133.79
2018-12-14T05:50:36.868Z,98136.73
2018-12-14T05:53:12.909Z,98138.58
2018-12-14T05:55:49.568Z,98138.94
2018-12-14T05:58:26.436Z,98141.58
2018-12-14T06:00:58.753Z,98138.52
2018-12-14T06:03:33.792Z,98145.38
2018-12-14T06:06:20.560Z,98148.02
2018-12-14T06:08:55.232Z,98153.12
2018-12-14T06:11:26.581Z,98154.46
2018-12-14T06:13:57.667Z,98161.39
2018-12-14T06:16:28.618Z,98157.91
2018-12-14T06:19:00.092Z,98166.55
2018-12-14T06:21:32.356Z,98173.42
2018-12-14T06:24:03.821Z,98167.22
2018-12-14T06:26:34.893Z,98168.07
2018-12-14T06:29:05.776Z,98175.34
2018-12-14T06:31:36.784Z,98175.36
2018-12-14T06:34:19.182Z,98173.77
2018-12-14T06:36:53.547Z,98174.14
2018-12-14T06:39:28.568Z,98152.27
2018-12-14T06:42:00.755Z,98179.36
2018-12-14T06:44:31.856Z,98185.38
2018-12-14T06:47:02.902Z,98177.66
2018-12-14T06:49:34.235Z,98191.31
2018-12-14T06:52:05.411Z,98185.17
2018-12-14T06:54:36.381Z,98187.80
2018-12-14T06:57:07.394Z,98190.73
2018-12-14T06:59:38.454Z,98189.05
2018-12-14T07:02:09.811Z,98190.03
2018-12-14T07:04:40.820Z,98185.24
2018-12-14T07:07:11.947Z,98190.53
2018-12-14T07:09:43.123Z,98197.44
2018-12-14T07:12:15.923Z,98193.66
2018-12-14T07:14:47.017Z,98202.97
2018-12-14T07:17:18.105Z,98199.48
2018-12-14T07:19:49.132Z,98206.81
2018-12-14T07:22:22.216Z,98214.05
2018-12-14T07:24:53.531Z,98216.28
2018-12-14T07:27:24.604Z,98222.72
2018-12-14T07:29:55.593Z,98225.30
2018-12-14T07:32:28.120Z,98224.92
2018-12-14T07:35:00.350Z,98229.69
2018-12-14T07:37:33.068Z,98233.92
2018-12-14T07:40:04.728Z,98238.21
2018-12-14T07:42:41.189Z,98236.75
2018-12-14T07:45:13.772Z,98237.52
2018-12-14T07:47:50.298Z,98246.31
2018-12-14T07:50:21.603Z,98244.05
2018-12-14T07:52:54.733Z,98249.98
2018-12-14T07:55:25.832Z,98253.36
2018-12-14T07:57:58.701Z,98251.27
2018-12-14T08:00:29.641Z,98250.77
2018-12-14T08:03:00.640Z,98257.70
2018-12-14T08:05:31.597Z,98259.94
2018-12-14T08:08:02.662Z,98267.20
2018-12-14T08:10:34.017Z,98261.83
2018-12-14T08:13:05.268Z,98262.38
2018-12-14T08:15:36.312Z,98261.57
2018-12-14T08:18:07.552Z,98264.02
2018-12-14T08:20:38.480Z,98267.52
2018-12-14T08:23:09.522Z,98267.54
2018-12-14T08:25:40.463Z,98263.30
2018-12-14T08:28:11.576Z,98270.91
2018-12-14T08:30:42.724Z,98268.31
2018-12-14T08:33:14.529Z,98276.80
2018-12-14T08:35:45.460Z,98272.01
2018-12-14T08:38:16.725Z,98277.96
2018-12-14T08:40:47.604Z,98275.00
2018-12-14T08:43:18.653Z,98274.15
2018-12-14T08:45:49.651Z,98277.64
2018-12-14T08:48:20.600Z,98284.51
2018-12-14T08:50:52.049Z,98285.01
2018-12-14T08:53:23.392Z,98286.52
2018-12-14T08:55:54.540Z,98296.34
2018-12-14T08:58:25.840Z,98299.34
2018-12-14T09:00:56.880Z,98306.28
2018-12-14T09:03:28.766Z,98309.34
2018-12-14T09:05:59.824Z,98314.88
2018-12-14T09:08:30.864Z,98324.78
2018-12-14T09:11:02.078Z,98329.41
2018-12-14T09:13:34.381Z,98328.12
2018-12-14T09:16:05.319Z,98333.69
2018-12-14T09:18:36.328Z,98332.09
2018-12-14T09:21:07.479Z,98328.60
2018-12-14T09:23:38.595Z,98332.83
2018-12-14T09:26:09.697Z,98334.50
2018-12-14T09:28:42.177Z,98335.79
2018-12-14T09:31:13.232Z,98337.08
2018-12-14T09:33:44.252Z,98337.38
2018-12-14T09:36:15.511Z,98336.50
2018-12-14T09:38:46.520Z,98336.56
2018-12-14T09:41:17.948Z,98337.31
2018-12-14T09:43:54.380Z,98340.30
2018-12-14T09:46:22.312Z,98342.34
2018-12-14T09:48:54.072Z,98343.95
2018-12-14T09:51:25.028Z,98341.92
2018-12-14T09:53:55.985Z,98342.95
2018-12-14T09:56:30.749Z,98339.53
2018-12-14T09:59:03.275Z,98345.89
2018-12-14T10:01:34.209Z,98346.34
2018-12-14T10:04:05.528Z,98341.48
2018-12-14T10:06:36.474Z,98341.42
2018-12-14T10:09:08.016Z,98343.69
2018-12-14T10:11:39.257Z,98346.99
2018-12-14T10:14:10.233Z,98344.43
2018-12-14T10:16:42.586Z,98342.17
2018-12-14T10:19:14.101Z,98345.91
2018-12-14T10:24:23.624Z,98348.72
2018-12-14T10:26:54.757Z,98350.94
2018-12-14T10:29:26.105Z,98353.68
2018-12-14T10:31:57.072Z,98357.88
2018-12-14T10:34:28.054Z,98355.66
2018-12-14T10:36:59.008Z,98353.03
2018-12-14T10:39:29.836Z,98362.84
2018-12-14T10:42:00.784Z,98363.26
2018-12-14T10:44:32.109Z,98366.07
2018-12-14T10:47:03.186Z,98364.48
2018-12-14T10:49:34.122Z,98364.84
2018-12-14T10:52:09.263Z,98360.98
2018-12-14T10:54:40.584Z,98362.33
2018-12-14T10:57:16.167Z,98370.17
2018-12-14T10:59:44.967Z,98366.38
2018-12-14T11:02:33.485Z,98361.29
2018-12-14T11:05:07.977Z,98370.50
2018-12-14T11:07:39.764Z,98369.58
2018-12-14T11:10:13.788Z,98367.69
2018-12-14T11:12:50.214Z,98371.41
2018-12-14T11:15:25.273Z,98370.86
2018-12-14T11:17:59.812Z,98372.64
2018-12-14T11:20:35.027Z,98370.66
2018-12-14T11:23:09.876Z,98377.70
2018-12-14T11:25:43.997Z,98376.37
2018-12-14T11:28:19.282Z,98371.58
2018-12-14T11:30:54.057Z,98366.44
2018-12-14T11:33:30.633Z,98367.67
2018-12-14T11:36:07.688Z,98362.46
2018-12-14T11:38:55.809Z,98358.77
2018-12-14T11:41:31.432Z,98357.41
2018-12-14T11:44:03.088Z,98357.68
2018-12-14T11:46:35.656Z,98345.11
2018-12-14T11:49:06.845Z,98350.67
2018-12-14T11:51:43.602Z,98349.76
2018-12-14T11:54:18.438Z,98353.19
2018-12-14T11:56:52.574Z,98344.42
2018-12-14T11:59:29.881Z,98340.07
2018-12-14T12:02:02.641Z,98345.40
2018-12-14T12:04:34.782Z,98345.09
2018-12-14T12:07:09.358Z,98350.80
2018-12-14T12:09:42.957Z,98344.02
2018-12-14T12:12:17.349Z,98348.30
2018-12-14T12:14:52.678Z,98343.12
2018-12-14T12:17:29.187Z,98342.34
2018-12-14T12:20:00.449Z,98338.73
2018-12-14T12:22:33.232Z,98331.79
2018-12-14T12:25:07.309Z,98332.77
2018-12-14T12:27:43.791Z,98332.47
2018-12-14T12:30:16.260Z,98337.73
2018-12-14T12:32:48.248Z,98335.70
2018-12-14T12:35:29.204Z,98332.03
2018-12-14T12:38:03.440Z,98337.25
2018-12-14T12:40:38.726Z,98333.87
2018-12-14T12:43:10.806Z,98339.91
2018-12-14T12:45:44.785Z,98336.15
2018-12-14T12:48:21.731Z,98339.59
2018-12-14T12:51:02.858Z,98340.02
2018-12-14T12:53:30.824Z,98333.27
2018-12-14T12:56:05.386Z,98349.13
2018-12-14T12:58:38.918Z,98346.15
2018-12-14T13:01:13.246Z,98352.27
2018-12-14T13:03:47.209Z,98351.77
2018-12-14T13:06:19.244Z,98357.17
2018-12-14T13:08:55.845Z,98349.95
2018-12-14T13:11:27.057Z,98356.81
2018-12-14T13:13:59.781Z,98353.27
2018-12-14T13:16:30.791Z,98352.02
2018-12-14T13:19:02.346Z,98349.04
2018-12-14T13:21:34.908Z,98350.08
2018-12-14T13:24:20.937Z,98357.80
2018-12-14T13:26:55.933Z,98360.02
2018-12-14T13:32:00.989Z,98361.59
2018-12-14T13:34:35.532Z,98360.39
2018-12-14T13:37:10.093Z,98366.58
2018-12-14T13:39:46.658Z,98360.31
2018-12-14T13:42:17.773Z,98365.20
2018-12-14T13:44:49.426Z,98373.67
2018-12-14T13:47:20.448Z,98370.94
2018-12-14T13:49:51.483Z,98370.98
2018-12-14T13:52:22.508Z,98378.55
2018-12-14T13:54:54.631Z,98375.14
2018-12-14T13:57:25.644Z,98374.98
2018-12-14T13:59:56.577Z,98378.34
2018-12-14T14:02:27.965Z,98386.63
2018-12-14T14:04:59.089Z,98385.09
2018-12-14T14:07:30.195Z,98392.39
2018-12-14T14:10:02.674Z,98395.75
2018-12-14T14:12:37.406Z,98394.96
2018-12-14T14:15:10.696Z,98407.52
2018-12-14T14:17:47.282Z,98403.55
2018-12-14T14:23:20.789Z,98414.41
2018-12-14T14:25:55.206Z,98424.32
2018-12-14T14:28:27.058Z,98425.13
2018-12-14T14:30:58.108Z,98429.38
2018-12-14T14:33:29.149Z,98437.37
2018-12-14T14:36:00.192Z,98436.09
2018-12-14T14:38:31.201Z,98438.70
2018-12-14T14:41:02.302Z,98431.14
2018-12-14T14:43:33.477Z,98443.69
2018-12-14T14:46:13.491Z,98447.97
2018-12-14T14:48:44.374Z,98451.05
2018-12-14T14:51:15.784Z,98457.05
2018-12-14T14:53:47.219Z,98450.55
2018-12-14T14:56:18.576Z,98453.98
2018-12-14T14:58:53.173Z,98450.51
2018-12-14T15:01:24.836Z,98451.52
2018-12-14T15:03:56.882Z,98462.72
2018-12-14T15:06:36.347Z,98460.48
2018-12-14T15:09:12.516Z,98461.77
2018-12-14T15:11:49.568Z,98471.97
2018-12-14T15:14:35.009Z,98474.97
2018-12-14T15:17:07.528Z,98480.77
2018-12-14T15:19:40.326Z,98480.02
2018-12-14T15:22:12.337Z,98480.93
2018-12-14T15:24:44.072Z,98483.22
2018-12-14T15:27:27.896Z,98481.12
2018-12-14T15:29:59.951Z,98479.45
2018-12-14T15:32:31.212Z,98485.41
2018-12-14T15:35:02.852Z,98490.05
2018-12-14T15:37:34.566Z,98488.76
2018-12-14T15:43:00.534Z,98497.98
2018-12-14T15:45:33.292Z,98503.62
2018-12-14T15:48:06.597Z,98506.23
2018-12-14T15:50:39.492Z,98503.72
2018-12-14T15:53:12.074Z,98503.48
2018-12-14T16:01:48.142Z,98523.78
2018-12-14T16:04:21.253Z,98519.88
2018-12-14T16:06:53.514Z,98523.31
2018-12-14T16:09:26.441Z,98526.78
2018-12-14T16:11:57.394Z,98529.75
2018-12-14T16:14:34.274Z,98531.50
2018-12-14T16:17:02.030Z,98534.51
2018-12-14T16:19:33.605Z,98535.31
2018-12-14T16:22:04.923Z,98536.22
2018-12-14T16:24:49.216Z,98536.66
2018-12-14T16:27:20.187Z,98541.38
2018-12-14T16:29:51.406Z,98534.08
2018-12-14T16:32:23.752Z,98539.61
2018-12-14T16:34:54.841Z,98539.23
2018-12-14T16:37:26.968Z,98539.70
2018-12-14T16:40:02.944Z,98547.03
2018-12-14T16:42:36.905Z,98549.48
2018-12-14T16:45:13.621Z,98543.09
2018-12-14T16:47:51.067Z,98547.25
2018-12-14T16:50:25.799Z,98548.96
2018-12-14T16:53:03.169Z,98557.55
2018-12-14T16:55:34.598Z,98558.96
2018-12-14T16:58:13.196Z,98557.30
2018-12-14T17:00:50.724Z,98566.86
2018-12-14T17:03:25.714Z,98568.62
2018-12-14T17:05:57.590Z,98569.17
2018-12-14T17:08:29.886Z,98574.37
2018-12-14T17:11:01.702Z,98572.39
2018-12-14T17:13:34.761Z,98575.87
2018-12-14T17:16:07.624Z,98577.15
2018-12-14T17:18:40.799Z,98578.86
2018-12-14T17:21:13.552Z,98585.81
2018-12-14T17:23:45.689Z,98587.56
2018-12-14T17:26:19.211Z,98599.53
2018-12-14T17:28:50.513Z,98598.20
2018-12-14T17:31:22.297Z,98598.98
2018-12-14T17:33:55.886Z,98602.38
2018-12-14T17:36:29.910Z,98603.23
2018-12-14T17:39:01.071Z,98602.80
2018-12-14T17:41:33.833Z,98600.53
2018-12-14T17:44:05.451Z,98610.45
2018-12-14T17:46:37.285Z,98611.69
2018-12-14T17:49:08.896Z,98616.06
2018-12-14T17:51:41.685Z,98622.11
2018-12-14T17:54:13.954Z,98616.57
2018-12-14T17:56:46.231Z,98616.66
2018-12-14T17:59:17.584Z,98614.58
2018-12-14T18:01:51.465Z,98626.16
2018-12-14T18:04:25.036Z,98628.81
2018-12-14T18:06:56.650Z,98634.00
2018-12-14T18:09:28.656Z,98630.60
2018-12-14T18:12:00.393Z,98628.11
2018-12-14T18:14:32.712Z,98636.64
2018-12-14T18:17:05.835Z,98643.50
2018-12-14T18:19:37.145Z,98641.32
2018-12-14T18:22:08.606Z,98644.32
2018-12-14T18:24:41.940Z,98645.53
2018-12-14T18:27:13.794Z,98650.25
2018-12-14T18:29:47.046Z,98644.17
2018-12-14T18:32:18.229Z,98652.95
2018-12-14T18:34:51.420Z,98645.34
2018-12-14T18:37:22.823Z,98651.47
2018-12-14T18:39:54.872Z,98655.33
2018-12-14T18:42:26.839Z,98660.90
2018-12-14T18:44:58.193Z,98661.33
2018-12-14T18:47:29.795Z,98659.50
2018-12-14T18:50:01.400Z,98665.50
2018-12-14T18:52:34.634Z,98661.64
2018-12-14T18:55:06.410Z,98669.48
2018-12-14T18:57:37.391Z,98664.05
2018-12-14T19:00:10.153Z,98667.87
2018-12-14T19:02:42.945Z,98673.48
2018-12-14T19:05:14.367Z,98675.52
2018-12-14T19:07:47.462Z,98674.70
2018-12-14T19:10:18.995Z,98669.76
2018-12-14T19:12:50.990Z,98678.98
2018-12-14T19:15:24.502Z,98679.34
2018-12-14T19:17:57.550Z,98687.92
2018-12-14T19:20:30.198Z,98690.63
2018-12-14T19:23:03.530Z,98693.95
2018-12-14T19:25:42.647Z,98694.38
2018-12-14T19:28:19.982Z,98695.57
2018-12-14T19:31:00.183Z,98692.17
2018-12-14T19:33:33.540Z,98696.99
2018-12-14T19:36:06.205Z,98694.02
2018-12-14T19:38:47.204Z,98703.50
2018-12-14T19:41:18.771Z,98708.64
2018-12-14T19:43:51.435Z,98714.67
2018-12-14T19:46:29.233Z,98712.93
2018-12-14T19:49:02.357Z,98718.11
2018-12-14T19:51:35.001Z,98717.22
2018-12-14T19:54:07.367Z,98721.07
2018-12-14T19:56:39.497Z,98719.36
2018-12-14T19:59:10.773Z,98722.06
2018-12-14T20:01:45.810Z,98726.84
2018-12-14T20:04:17.289Z,98726.41
2018-12-14T20:06:48.754Z,98726.75
2018-12-14T20:09:29.329Z,98734.49
2018-12-14T20:12:03.308Z,98723.55
2018-12-14T20:14:42.585Z,98737.37
2018-12-14T20:17:17.758Z,98740.43
2018-12-14T20:19:53.098Z,98732.22
2018-12-14T20:22:25.464Z,98738.66
2018-12-14T20:25:00.956Z,98738.32
2018-12-14T20:27:36.553Z,98740.43
2018-12-14T20:30:09.336Z,98741.29
2018-12-14T20:32:46.246Z,98733.60
2018-12-14T20:35:22.175Z,98735.37
2018-12-14T20:37:54.779Z,98734.09
2018-12-14T20:43:23.077Z,98742.61
2018-12-14T20:45:54.713Z,98742.09
2018-12-14T20:48:27.627Z,98744.69
2018-12-14T20:51:00.880Z,98747.32
2018-12-14T20:53:35.017Z,98745.64
2018-12-14T20:56:23.205Z,98742.97
2018-12-14T20:59:22.355Z,98748.91
2018-12-14T21:04:53.678Z,98745.94
2018-12-14T21:07:41.176Z,98740.30
2018-12-14T21:10:13.233Z,98746.31
2018-12-14T21:15:41.548Z,98752.70
2018-12-14T21:18:15.541Z,98754.45
2018-12-14T21:23:35.847Z,98753.56
2018-12-14T21:26:22.099Z,98741.89
2018-12-14T21:32:02.655Z,98754.82
2018-12-14T21:34:36.835Z,98750.96
2018-12-14T21:37:39.047Z,98745.75
2018-12-14T21:40:22.605Z,98741.09
2018-12-14T21:42:57.562Z,98741.98
2018-12-14T21:45:29.560Z,98734.73
2018-12-14T21:48:01.776Z,98733.97
2018-12-14T21:50:33.065Z,98740.43
2018-12-14T21:53:05.042Z,98730.63
2018-12-14T21:55:37.976Z,98730.63
2018-12-14T21:58:09.436Z,98730.08
2018-12-14T22:00:41.268Z,98734.27
2018-12-14T22:03:12.744Z,98730.41
2018-12-14T22:05:56.791Z,98725.16
2018-12-14T22:08:28.332Z,98723.88
2018-12-14T22:11:04.585Z,98722.52
2018-12-14T22:13:40.664Z,98721.23
2018-12-14T22:19:22.656Z,98722.72
2018-12-14T22:21:59.540Z,98714.58
2018-12-14T22:24:36.397Z,98715.07
2018-12-14T22:27:07.952Z,98721.93
2018-12-14T22:29:39.328Z,98722.39
2018-12-14T22:32:10.854Z,98716.82
2018-12-14T22:34:42.485Z,98718.14
2018-12-14T22:37:13.952Z,98719.85
2018-12-14T22:39:47.001Z,98720.74
2018-12-14T22:42:23.719Z,98717.77
2018-12-14T22:45:01.119Z,98714.77
2018-12-14T22:47:37.894Z,98707.35
2018-12-14T22:50:13.157Z,98715.07
2018-12-14T22:52:46.381Z,98713.78
2018-12-14T22:55:18.887Z,98711.21
2018-12-14T22:57:53.850Z,98714.22
2018-12-14T23:00:26.397Z,98720.25
2018-12-14T23:03:12.837Z,98714.67
2018-12-14T23:11:28.342Z,98721.56
2018-12-14T23:14:05.659Z,98722.95
2018-12-14T23:16:52.110Z,98723.77
2018-12-14T23:19:25.748Z,98729.31
2018-12-14T23:22:03.612Z,98727.17
2018-12-14T23:24:42.873Z,98731.89
2018-12-14T23:27:14.173Z,98729.28
2018-12-14T23:29:45.584Z,98737.83
2018-12-14T23:32:16.817Z,98731.23
2018-12-14T23:34:47.900Z,98729.58
2018-12-14T23:37:19.221Z,98732.22
2018-12-14T23:39:53.429Z,98739.61
2018-12-14T23:42:24.540Z,98741.29
2018-12-14T23:44:56.293Z,98737.03
2018-12-14T23:47:27.700Z,98743.95
2018-12-14T23:50:00.281Z,98743.95
2018-12-14T23:52:36.721Z,98738.41
2018-12-14T23:55:08.159Z,98739.23
2018-12-14T23:57:41.799Z,98737.92
